createdAt,value
2018-12-14T00:04:02.327Z,0.0
2018-12-14T00:14:46.744Z,0.0
2018-12-14T00:25:00.154Z,0.0
2018-12-14T00:35:13.545Z,0.0
2018-12-14T00:45:26.774Z,0.0
2018-12-14T00:55:39.943Z,0.0
2018-12-14T01:05:53.408Z,0.0
2018-12-14T01:16:07.188Z,0.0
2018-12-14T01:26:22.217Z,0.0
2018-12-14T01:36:35.870Z,0.0
2018-12-14T01:46:48.969Z,0.0
2018-12-14T01:57:02.249Z,0.0
2018-12-14T02:07:15.602Z,0.0
2018-12-14T02:17:28.680Z,0.0
2018-12-14T02:27:41.770Z,0.0
2018-12-14T02:38:26.235Z,0.0
2018-12-14T02:48:38.077Z,0.0
2018-12-14T02:58:50.921Z,0.0
2018-12-14T03:09:04.537Z,0.0
2018-12-14T03:19:17.813Z,0.0
2018-12-14T03:30:04.539Z,0.0
2018-12-14T03:40:49.574Z,0.0
2018-12-14T03:51:37.129Z,0.0
2018-12-14T04:02:04.340Z,0.0
2018-12-14T04:12:49.225Z,0.0
2018-12-14T04:23:38.584Z,0.0
2018-12-14T04:35:04.958Z,0.0
2018-12-14T04:45:19.180Z,0.0
2018-12-14T04:55:33.338Z,0.0
2018-12-14T05:09:17.227Z,0.0
2018-12-14T05:19:43.168Z,0.0
2018-12-14T05:30:16.698Z,0.0
2018-12-14T05:41:18.360Z,0.0
2018-12-14T05:51:37.046Z,0.0
2018-12-14T06:02:23.458Z,0.0
2018-12-14T06:13:24.406Z,0.0
2018-12-14T06:23:43.507Z,0.0
2018-12-14T06:34:21.406Z,0.0
2018-12-14T06:44:35.981Z,0.0
2018-12-14T06:55:49.770Z,0.0
2018-12-14T07:06:39.699Z,12.0
2018-12-14T07:17:45.910Z,40.0
2018-12-14T07:29:09.683Z,176.0
2018-12-14T07:40:28.714Z,368.0
2018-12-14T07:51:55.735Z,636.0
2018-12-14T08:02:46.783Z,1080.0
2018-12-14T08:13:35.026Z,1632.0
2018-12-14T08:24:05.735Z,2176.0
2018-12-14T08:34:19.453Z,2700.0
2018-12-14T08:44:32.560Z,3216.0
2018-12-14T08:55:19.218Z,4016.0
2018-12-14T09:06:18.157Z,4536.0
2018-12-14T09:17:23.038Z,4936.0
2018-12-14T09:27:37.182Z,5968.0
2018-12-14T09:39:11.261Z,7268.0
2018-12-14T09:49:25.765Z,4732.0
2018-12-14T09:59:38.922Z,5064.0
2018-12-14T10:09:52.003Z,6496.0
2018-12-14T10:20:05.218Z,7420.0
2018-12-14T10:30:49.881Z,7540.0
2018-12-14T10:41:34.837Z,7668.0
2018-12-14T10:52:21.410Z,8212.0
2018-12-14T11:02:34.903Z,8536.0
2018-12-14T11:12:47.993Z,10144.0
2018-12-14T11:23:01.276Z,10948.0
2018-12-14T11:33:14.241Z,11960.0
2018-12-14T11:43:27.379Z,45600.0
2018-12-14T11:53:40.773Z,55936.0
2018-12-14T12:03:53.955Z,53088.0
2018-12-14T12:14:07.324Z,61056.0
2018-12-14T12:24:51.908Z,60896.0
2018-12-14T12:35:03.870Z,53888.0
2018-12-14T12:45:17.328Z,41856.0
2018-12-14T12:55:30.815Z,8632.0
2018-12-14T13:05:44.312Z,5176.0
2018-12-14T13:15:58.207Z,5300.0
2018-12-14T13:26:09.591Z,33664.0
2018-12-14T13:36:22.783Z,30496.0
2018-12-14T13:46:35.936Z,20736.0
2018-12-14T13:56:47.627Z,6956.0
2018-12-14T14:07:01.513Z,3604.0
2018-12-14T14:17:15.601Z,3508.0
2018-12-14T14:27:29.302Z,5292.0
2018-12-14T14:37:43.022Z,1188.0
2018-12-14T14:48:00.501Z,992.0
2018-12-14T14:58:45.176Z,500.0
2018-12-14T15:08:58.316Z,160.0
2018-12-14T15:19:43.245Z,64.0
2018-12-14T15:30:27.802Z,20.0
2018-12-14T15:40:41.155Z,4.0
2018-12-14T15:50:55.431Z,0.0
2018-12-14T16:01:16.821Z,0.0
2018-12-14T16:11:30.709Z,0.0
2018-12-14T16:21:41.684Z,0.0
2018-12-14T16:31:53.077Z,0.0
2018-12-14T16:42:06.734Z,0.0
2018-12-14T16:52:20.810Z,0.0
2018-12-14T17:02:34.044Z,0.0
2018-12-14T17:12:47.230Z,0.0
2018-12-14T17:22:59.189Z,0.0
2018-12-14T17:33:12.609Z,0.0
2018-12-14T17:43:25.987Z,0.0
2018-12-14T17:53:39.063Z,0.0
2018-12-14T18:04:04.510Z,0.0
2018-12-14T18:14:17.486Z,0.0
2018-12-14T18:24:30.795Z,0.0
2018-12-14T18:34:44.174Z,0.0
2018-12-14T18:45:30.031Z,0.0
2018-12-14T18:56:15.180Z,0.0
2018-12-14T19:06:26.800Z,0.0
2018-12-14T19:16:40.234Z,0.0
2018-12-14T19:27:25.922Z,0.0
2018-12-14T19:37:39.989Z,0.0
2018-12-14T19:48:24.780Z,0.0
2018-12-14T19:58:38.031Z,0.0
2018-12-14T20:08:51.417Z,0.0
2018-12-14T20:19:35.880Z,0.0
2018-12-14T20:29:49.062Z,0.0
2018-12-14T20:40:02.459Z,0.0
2018-12-14T20:50:15.641Z,0.0
2018-12-14T21:00:29.020Z,0.0
2018-12-14T21:10:40.179Z,0.0
2018-12-14T21:20:53.216Z,0.0
2018-12-14T21:31:06.478Z,0.0
2018-12-14T21:54:45.150Z,0.0
2018-12-14T22:31:14.172Z,0.0
2018-12-14T22:42:03.065Z,0.0
2018-12-14T22:53:07.512Z,0.0
2018-12-14T23:03:21.728Z,0.0
2018-12-14T23:13:38.809Z,0.0
2018-12-14T23:24:15.110Z,0.0
2018-12-14T23:35:07.431Z,0.0
2018-12-14T23:45:27.100Z,0.0
2018-12-14T23:56:23.546Z,0.0
